Time;durP1;ratioP1;P1;durP2;ratioP2;P2;SDS_P1;SDS_P2;PMS_P1;PMS_P2;Temp;Humidity;BMP_temperature;BMP_pressure;BME280_temperature;BME280_humidity;BME280_pressure;Samples;Min_cycle;Max_cycle;Signal;HPM_P1;HPM_P2
2023/02/09 00:02:23;;;;;;;;;;;;;;;;;;4998474;28;20316;-77
2023/02/09 00:04:49;;;;;;;;;;;;;;;;;;4997414;28;19910;-77
2023/02/09 00:07:15;;;;;;;;;;;;;;;;;;4997706;28;20293;-77
2023/02/09 00:09:41;;;;;;;;;;;;;;;;;;5015834;28;19920;-77
2023/02/09 00:14:52;;;;;;;;;;;;;;;;;;5020574;28;20388;-77
2023/02/09 00:17:17;;;;;;;;;;;;;;;;;;5019326;28;19913;-77
2023/02/09 00:19:43;;;;;;;;;;;;;;;;;;5020505;28;19910;-78
2023/02/09 00:22:09;;;;;;;;;;;;;;;;;;5002889;28;19972;-77
2023/02/09 00:24:35;;;;;;;;;;;;;;;;;;5018023;28;19910;-77
2023/02/09 00:27:01;;;;;;;;;;;;;;;;;;5020116;28;19910;-78
2023/02/09 00:29:27;;;;;;;;;;;;;;;;;;5019611;28;20392;-77
2023/02/09 00:31:53;;;;;;;;;;;;;;;;;;5019958;28;19914;-78
2023/02/09 00:34:19;;;;;;;;;;;;;;;;;;5001614;28;19940;-77
2023/02/09 00:36:45;;;;;;;;;;;;;;;;;;5018675;28;20009;-77
2023/02/09 00:39:10;;;;;;;;;;;;;;;;;;5018361;28;19917;-78
2023/02/09 00:44:21;;;;;;;;;;;;;;;;;;5015890;28;19920;-77
2023/02/09 00:46:47;;;;;;;;;;;;;;;;;;4996853;28;20003;-77
2023/02/09 00:49:13;;;;;;;;;;;;;;;;;;4996491;28;19909;-77
2023/02/09 00:51:39;;;;;;;;;;;;;;;;;;5015054;28;19980;-77
2023/02/09 00:54:05;;;;;;;;;;;;;;;;;;5015500;28;19909;-76
2023/02/09 00:56:31;;;;;;;;;;;;;;;;;;4997282;28;19922;-76
2023/02/09 00:58:57;;;;;;;;;;;;;;;;;;5015554;28;19936;-76
2023/02/09 01:01:23;;;;;;;;;;;;;;;;;;5015526;28;19910;-75
2023/02/09 01:03:49;;;;;;;;;;;;;;;;;;5015342;28;19954;-75
2023/02/09 01:06:15;;;;;;;;;;;;;;;;;;5015145;28;20452;-77
2023/02/09 01:08:40;;;;;;;;;;;;;;;;;;4998284;28;19913;-76
2023/02/09 01:11:06;;;;;;;;;;;;;;;;;;4997409;28;19932;-77
2023/02/09 01:13:32;;;;;;;;;;;;;;;;;;5015387;28;20384;-76
2023/02/09 01:15:58;;;;;;;;;;;;;;;;;;5002002;28;19916;-77
2023/02/09 01:18:24;;;;;;;;;;;;;;;;;;5004725;28;19917;-77
2023/02/09 01:20:50;;;;;;;;;;;;;;;;;;5006244;28;20183;-77
2023/02/09 01:23:16;;;;;;;;;;;;;;;;;;5002172;28;19909;-77
2023/02/09 01:25:43;;;;;;;;;;;;;;;;;;5016699;28;20297;-76
2023/02/09 01:28:09;;;;;;;;;;;;;;;;;;5000743;28;20391;-77
2023/02/09 01:30:35;;;;;;;;;;;;;;;;;;5018556;28;20004;-76
2023/02/09 01:33:00;;;;;;;;;;;;;;;;;;5018371;28;19909;-77
2023/02/09 01:35:26;;;;;;;;;;;;;;;;;;5000408;28;20516;-77
2023/02/09 01:37:52;;;;;;;;;;;;;;;;;;5018335;28;19920;-77
2023/02/09 01:40:18;;;;;;;;;;;;;;;;;;5018768;28;19914;-77
2023/02/09 01:42:44;;;;;;;;;;;;;;;;;;5018231;28;19916;-78
2023/02/09 01:45:10;;;;;;;;;;;;;;;;;;5000562;28;19914;-77
2023/02/09 01:47:36;;;;;;;;;;;;;;;;;;5017299;28;19910;-77
2023/02/09 01:50:02;;;;;;;;;;;;;;;;;;5000281;28;19909;-77
2023/02/09 01:52:28;;;;;;;;;;;;;;;;;;5017463;28;19956;-77
2023/02/09 01:54:53;;;;;;;;;;;;;;;;;;5017598;28;20419;-77
2023/02/09 02:10:28;;;;;;;;;;;;;;;;;;5043647;28;19921;-84
2023/02/09 02:13:01;;;;;;;;;;;;;;;;;;5041484;28;19920;-84
2023/02/09 02:15:44;;;;;;;;;;;;;;;;;;5010117;28;19977;-84
2023/02/09 02:18:33;;;;;;;;;;;;;;;;;;5042839;28;19901;-84
2023/02/09 02:21:24;;;;;;;;;;;;;;;;;;5043329;28;19894;-84
2023/02/09 02:23:50;;;;;;;;;;;;;;;;;;5023082;28;19921;-83
2023/02/09 02:26:19;;;;;;;;;;;;;;;;;;5021137;28;19894;-84
2023/02/09 02:28:48;;;;;;;;;;;;;;;;;;5016615;28;19894;-84
2023/02/09 02:36:26;;;;;;;;;;;;;;;;;;5055856;23;19910;-85
2023/02/09 02:39:14;;;;;;;;;;;;;;;;;;5022593;28;19941;-85
2023/02/09 02:44:33;;;;;;;;;;;;;;;;;;5021964;28;19905;-84
2023/02/09 03:47:00;;;;;;;;;;;;;;;;;;5058387;28;19933;-83
2023/02/09 04:15:49;;;;;;;;;;;;;;;;;;5963431;22;19918;-82
2023/02/09 05:57:29;;;;;;;;;;;;;;;;;;6114078;23;20705;-81
2023/02/09 05:59:56;;;;;;;;;;;;;;;;;;5012496;28;19910;-81
2023/02/09 06:02:23;;;;;;;;;;;;;;;;;;5023970;28;19898;-82
2023/02/09 06:04:49;;;;;;;;;;;;;;;;;;5019399;28;19918;-80
2023/02/09 06:07:15;;;;;;;;;;;;;;;;;;5023614;28;20100;-81
2023/02/09 06:12:13;;;;;;;;;;;;;;;;;;5589756;22;19917;-82
2023/02/09 06:14:39;;;;;;;;;;;;;;;;;;5022206;28;19913;-82
2023/02/09 06:17:05;;;;;;;;;;;;;;;;;;5870388;23;20579;-83
2023/02/09 06:19:31;;;;;;;;;;;;;;;;;;5589436;22;19909;-83
2023/02/09 06:22:15;;;;;;;;;;;;;;;;;;5084034;28;19903;-83
2023/02/09 06:27:43;;;;;;;;;;;;;;;;;;6146310;23;19926;-80
2023/02/09 06:35:20;;;;;;;;;;;;;;;;;;5890702;22;20785;-81
2023/02/09 06:37:46;;;;;;;;;;;;;;;;;;5040887;28;19932;-83
2023/02/09 06:48:00;;;;;;;;;;;;;;;;;;5573991;22;19976;-83
2023/02/09 06:50:26;;;;;;;;;;;;;;;;;;5023726;28;19897;-83
2023/02/09 06:58:09;;;;;;;;;;;;;;;;;;5744675;23;20026;-82
2023/02/09 07:00:35;;;;;;;;;;;;;;;;;;5023921;28;19909;-83
2023/02/09 07:26:24;;;;;;;;;;;;;;;;;;4955767;23;20121;-81
2023/02/09 07:57:23;;;;;;;;;;;;;;;;;;5592423;22;20394;-77
2023/02/09 07:59:49;;;;;;;;;;;;;;;;;;5019131;28;19985;-76
2023/02/09 08:02:15;;;;;;;;;;;;;;;;;;5001548;28;19917;-77
2023/02/09 08:04:42;;;;;;;;;;;;;;;;;;5001650;28;20340;-78
2023/02/09 08:07:08;;;;;;;;;;;;;;;;;;5004232;28;19910;-78
2023/02/09 08:09:34;;;;;;;;;;;;;;;;;;5003523;28;19916;-77
2023/02/09 08:11:59;;;;;;;;;;;;;;;;;;5020236;28;19909;-77
2023/02/09 08:14:25;;;;;;;;;;;;;;;;;;5002468;28;19936;-76
2023/02/09 08:17:18;;;;;;;;;;;;;;;;;;5001868;28;19913;-76
2023/02/09 08:19:37;;;;;;;;;;;;;;;;;;5019259;28;19913;-77
2023/02/09 08:22:03;;;;;;;;;;;;;;;;;;5020409;28;20004;-76
2023/02/09 08:24:30;;;;;;;;;;;;;;;;;;5019604;28;19910;-77
2023/02/09 08:26:56;;;;;;;;;;;;;;;;;;5001098;28;19909;-77
2023/02/09 08:29:22;;;;;;;;;;;;;;;;;;5002262;28;19915;-77
2023/02/09 08:31:48;;;;;;;;;;;;;;;;;;5004034;28;20374;-78
2023/02/09 08:34:14;;;;;;;;;;;;;;;;;;5022459;28;19916;-76
2023/02/09 08:36:40;;;;;;;;;;;;;;;;;;5022808;28;19909;-77
2023/02/09 08:39:06;;;;;;;;;;;;;;;;;;5006429;28;19914;-78
2023/02/09 08:41:32;;;;;;;;;;;;;;;;;;5023592;28;19913;-76
2023/02/09 08:43:59;;;;;;;;;;;;;;;;;;5001661;28;20283;-81
2023/02/09 08:46:25;;;;;;;;;;;;;;;;;;4997329;28;19916;-78
2023/02/09 08:48:51;;;;;;;;;;;;;;;;;;5000887;28;19964;-77
2023/02/09 08:51:17;;;;;;;;;;;;;;;;;;5001906;28;19910;-77
2023/02/09 08:53:46;;;;;;;;;;;;;;;;;;5000214;28;19909;-77
2023/02/09 08:56:12;;;;;;;;;;;;;;;;;;5016862;28;19913;-77
2023/02/09 08:58:38;;;;;;;;;;;;;;;;;;5000241;28;19920;-78
2023/02/09 09:01:04;;;;;;;;;;;;;;;;;;5000273;28;19913;-78
2023/02/09 09:03:31;;;;;;;;;;;;;;;;;;5001012;28;19916;-77
2023/02/09 09:05:57;;;;;;;;;;;;;;;;;;5018621;28;19909;-76
2023/02/09 09:08:23;;;;;;;;;;;;;;;;;;5020086;28;19909;-77
2023/02/09 09:10:49;;;;;;;;;;;;;;;;;;5021751;28;19910;-76
2023/02/09 09:13:15;;;;;;;;;;;;;;;;;;5020459;28;19909;-77
2023/02/09 09:15:41;;;;;;;;;;;;;;;;;;5019512;28;19909;-79
2023/02/09 09:18:07;;;;;;;;;;;;;;;;;;5002051;28;19914;-76
2023/02/09 09:20:33;;;;;;;;;;;;;;;;;;5003923;28;19917;-76
2023/02/09 09:23:00;;;;;;;;;;;;;;;;;;5002956;28;19910;-77
2023/02/09 09:25:26;;;;;;;;;;;;;;;;;;5001828;28;19916;-78
2023/02/09 09:27:52;;;;;;;;;;;;;;;;;;5002124;28;19913;-78
2023/02/09 09:30:18;;;;;;;;;;;;;;;;;;5001839;28;19917;-77
2023/02/09 09:32:44;;;;;;;;;;;;;;;;;;5002548;28;19909;-78
2023/02/09 09:35:10;;;;;;;;;;;;;;;;;;5017721;28;19953;-76
2023/02/09 09:37:36;;;;;;;;;;;;;;;;;;5020532;28;20055;-76
2023/02/09 09:40:01;;;;;;;;;;;;;;;;;;5005607;28;19924;-77
2023/02/09 09:42:27;;;;;;;;;;;;;;;;;;5003676;28;19905;-78
2023/02/09 09:44:53;;;;;;;;;;;;;;;;;;5023582;28;19944;-78
2023/02/09 09:47:19;;;;;;;;;;;;;;;;;;5005849;28;19905;-77
2023/02/09 09:49:45;;;;;;;;;;;;;;;;;;5002027;28;19910;-77
2023/02/09 09:52:11;;;;;;;;;;;;;;;;;;5018605;28;19905;-77
2023/02/09 09:54:37;;;;;;;;;;;;;;;;;;5018068;28;19917;-78
2023/02/09 09:57:03;;;;;;;;;;;;;;;;;;5000600;28;19914;-78
2023/02/09 09:59:29;;;;;;;;;;;;;;;;;;4999691;28;19949;-76
2023/02/09 10:01:55;;;;;;;;;;;;;;;;;;5017901;28;20277;-77
2023/02/09 10:04:20;;;;;;;;;;;;;;;;;;5017830;28;19909;-77
2023/02/09 10:06:46;;;;;;;;;;;;;;;;;;4999997;28;19921;-77
2023/02/09 10:09:14;;;;;;;;;;;;;;;;;;4998894;28;20382;-76
2023/02/09 10:11:40;;;;;;;;;;;;;;;;;;5016365;28;19910;-76
2023/02/09 10:14:06;;;;;;;;;;;;;;;;;;4999270;28;19979;-76
2023/02/09 10:16:33;;;;;;;;;;;;;;;;;;4998765;28;19910;-77
2023/02/09 10:18:59;;;;;;;;;;;;;;;;;;4998183;28;19913;-76
2023/02/09 10:21:25;;;;;;;;;;;;;;;;;;5016954;28;19992;-80
2023/02/09 10:23:50;;;;;;;;;;;;;;;;;;4999208;28;19909;-77
2023/02/09 10:26:16;;;;;;;;;;;;;;;;;;4997874;28;19910;-76
2023/02/09 10:28:42;;;;;;;;;;;;;;;;;;4998029;28;20425;-76
2023/02/09 10:31:08;;;;;;;;;;;;;;;;;;5016200;28;19914;-76
2023/02/09 10:33:34;;;;;;;;;;;;;;;;;;5014585;28;19960;-76
2023/02/09 10:36:04;;;;;;;;;;;;;;;;;;4998218;28;20363;-77
2023/02/09 10:38:30;;;;;;;;;;;;;;;;;;4998252;28;19914;-76
2023/02/09 10:40:57;;;;;;;;;;;;;;;;;;5016522;28;19956;-77
2023/02/09 10:43:22;;;;;;;;;;;;;;;;;;4998739;28;19957;-76
2023/02/09 10:45:48;;;;;;;;;;;;;;;;;;4997923;28;19909;-76
2023/02/09 10:48:14;;;;;;;;;;;;;;;;;;4997978;28;20373;-76
2023/02/09 10:50:40;;;;;;;;;;;;;;;;;;4999370;28;19985;-76
2023/02/09 10:53:06;;;;;;;;;;;;;;;;;;5017028;28;19913;-76
2023/02/09 10:55:33;;;;;;;;;;;;;;;;;;5016550;28;20384;-76
2023/02/09 10:57:59;;;;;;;;;;;;;;;;;;4998454;28;19918;-77
2023/02/09 11:00:24;;;;;;;;;;;;;;;;;;5015726;28;19964;-75
2023/02/09 11:02:50;;;;;;;;;;;;;;;;;;5016039;28;19913;-75
2023/02/09 11:05:16;;;;;;;;;;;;;;;;;;4998049;28;19909;-75
2023/02/09 11:07:42;;;;;;;;;;;;;;;;;;4998374;28;20126;-76
2023/02/09 11:10:08;;;;;;;;;;;;;;;;;;5015671;28;19909;-75
2023/02/09 11:12:35;;;;;;;;;;;;;;;;;;4997196;28;19967;-77
2023/02/09 11:15:01;;;;;;;;;;;;;;;;;;5015393;28;19916;-77
2023/02/09 11:17:28;;;;;;;;;;;;;;;;;;5015375;28;19910;-77
2023/02/09 11:19:53;;;;;;;;;;;;;;;;;;4998584;28;19909;-76
2023/02/09 11:22:19;;;;;;;;;;;;;;;;;;5015996;28;19910;-76
2023/02/09 11:24:45;;;;;;;;;;;;;;;;;;5014955;28;19913;-76
2023/02/09 11:27:11;;;;;;;;;;;;;;;;;;5013601;28;19909;-77
2023/02/09 11:29:37;;;;;;;;;;;;;;;;;;4997694;28;19909;-77
2023/02/09 11:32:03;;;;;;;;;;;;;;;;;;5012957;28;19936;-74
2023/02/09 11:34:29;;;;;;;;;;;;;;;;;;4996037;28;19910;-76
2023/02/09 11:36:55;;;;;;;;;;;;;;;;;;4978357;28;19917;-75
2023/02/09 11:39:21;;;;;;;;;;;;;;;;;;4995757;28;20382;-75
2023/02/09 11:44:31;;;;;;;;;;;;;;;;;;4995659;28;19930;-76
2023/02/09 11:46:57;;;;;;;;;;;;;;;;;;4995910;28;19910;-76
2023/02/09 11:49:23;;;;;;;;;;;;;;;;;;4994727;28;19920;-76
2023/02/09 11:51:49;;;;;;;;;;;;;;;;;;4978035;28;19910;-76
2023/02/09 11:54:15;;;;;;;;;;;;;;;;;;4995399;28;19910;-75
2023/02/09 11:56:41;;;;;;;;;;;;;;;;;;4995173;28;19921;-76
2023/02/09 11:59:07;;;;;;;;;;;;;;;;;;4975748;28;19953;-76
2023/02/09 12:01:33;;;;;;;;;;;;;;;;;;4995075;28;20285;-75
2023/02/09 12:03:59;;;;;;;;;;;;;;;;;;4994849;28;19909;-77
2023/02/09 12:06:24;;;;;;;;;;;;;;;;;;4994860;28;19956;-76
2023/02/09 12:08:50;;;;;;;;;;;;;;;;;;4977131;28;19910;-76
2023/02/09 12:11:16;;;;;;;;;;;;;;;;;;4977164;28;19910;-76
2023/02/09 12:13:42;;;;;;;;;;;;;;;;;;4977502;28;19920;-76
2023/02/09 12:16:08;;;;;;;;;;;;;;;;;;4994620;28;20267;-76
2023/02/09 12:18:34;;;;;;;;;;;;;;;;;;4976867;28;19914;-76
2023/02/09 12:21:00;;;;;;;;;;;;;;;;;;4977221;28;19917;-76
2023/02/09 12:23:26;;;;;;;;;;;;;;;;;;4994686;28;19910;-76
2023/02/09 12:25:52;;;;;;;;;;;;;;;;;;4975046;28;19964;-77
2023/02/09 12:28:18;;;;;;;;;;;;;;;;;;4977004;28;19910;-77
2023/02/09 12:30:44;;;;;;;;;;;;;;;;;;4994716;28;19956;-76
2023/02/09 12:33:09;;;;;;;;;;;;;;;;;;4994745;28;19910;-76
2023/02/09 12:35:35;;;;;;;;;;;;;;;;;;4994815;28;19952;-76
2023/02/09 12:38:01;;;;;;;;;;;;;;;;;;4994161;28;20375;-79
2023/02/09 12:40:27;;;;;;;;;;;;;;;;;;4977135;28;19910;-77
2023/02/09 12:42:53;;;;;;;;;;;;;;;;;;4994835;28;19916;-75
2023/02/09 12:45:19;;;;;;;;;;;;;;;;;;4994416;28;19910;-75
2023/02/09 12:47:45;;;;;;;;;;;;;;;;;;4994278;28;19917;-76
2023/02/09 12:50:11;;;;;;;;;;;;;;;;;;4977330;28;20341;-76
2023/02/09 12:52:36;;;;;;;;;;;;;;;;;;4994490;28;19917;-75
2023/02/09 12:55:02;;;;;;;;;;;;;;;;;;4993766;28;19914;-76
2023/02/09 12:57:28;;;;;;;;;;;;;;;;;;4976312;28;20293;-76
2023/02/09 12:59:55;;;;;;;;;;;;;;;;;;4994456;28;20330;-76
2023/02/09 13:02:21;;;;;;;;;;;;;;;;;;4977168;28;19909;-76
2023/02/09 13:04:46;;;;;;;;;;;;;;;;;;4976349;28;19910;-75
2023/02/09 13:07:12;;;;;;;;;;;;;;;;;;4994543;28;20008;-75
2023/02/09 13:09:38;;;;;;;;;;;;;;;;;;4994707;28;19963;-75
2023/02/09 13:12:04;;;;;;;;;;;;;;;;;;4994257;28;19965;-77
2023/02/09 13:14:30;;;;;;;;;;;;;;;;;;4994427;28;20618;-76
2023/02/09 13:16:56;;;;;;;;;;;;;;;;;;4977468;28;19909;-75
2023/02/09 13:19:22;;;;;;;;;;;;;;;;;;4976578;28;19925;-75
2023/02/09 13:21:48;;;;;;;;;;;;;;;;;;4977220;28;20064;-77
2023/02/09 13:24:14;;;;;;;;;;;;;;;;;;4975959;28;19935;-77
2023/02/09 13:26:39;;;;;;;;;;;;;;;;;;4994754;28;19910;-77
2023/02/09 13:29:05;;;;;;;;;;;;;;;;;;4993929;28;20274;-75
2023/02/09 13:31:31;;;;;;;;;;;;;;;;;;4976907;28;19910;-77
2023/02/09 13:33:57;;;;;;;;;;;;;;;;;;4977378;28;20337;-76
2023/02/09 13:36:23;;;;;;;;;;;;;;;;;;4994235;28;20286;-75
2023/02/09 13:38:49;;;;;;;;;;;;;;;;;;4994192;28;19914;-76
2023/02/09 13:41:15;;;;;;;;;;;;;;;;;;4977432;28;19910;-75
2023/02/09 13:43:43;;;;;;;;;;;;;;;;;;4994347;28;19929;-76
2023/02/09 13:46:09;;;;;;;;;;;;;;;;;;4993690;28;19910;-76
2023/02/09 13:48:35;;;;;;;;;;;;;;;;;;4993060;28;19917;-77
2023/02/09 13:51:00;;;;;;;;;;;;;;;;;;4994947;28;20260;-77
2023/02/09 13:53:29;;;;;;;;;;;;;;;;;;4995321;28;19910;-82
2023/02/09 13:55:55;;;;;;;;;;;;;;;;;;4977404;28;19909;-77
2023/02/09 13:58:21;;;;;;;;;;;;;;;;;;5005878;23;19929;-80
2023/02/09 14:00:47;;;;;;;;;;;;;;;;;;4992481;28;19914;-80
2023/02/09 14:03:13;;;;;;;;;;;;;;;;;;4995269;28;20333;-80
2023/02/09 14:05:39;;;;;;;;;;;;;;;;;;4995391;28;19909;-80
2023/02/09 14:08:05;;;;;;;;;;;;;;;;;;5003820;28;19910;-78
2023/02/09 14:10:31;;;;;;;;;;;;;;;;;;5011530;28;19964;-79
2023/02/09 14:12:58;;;;;;;;;;;;;;;;;;5012716;28;19910;-80
2023/02/09 14:18:09;;;;;;;;;;;;;;;;;;5014259;28;19924;-78
2023/02/09 14:20:34;;;;;;;;;;;;;;;;;;5011267;28;19909;-79
2023/02/09 14:23:00;;;;;;;;;;;;;;;;;;5017135;28;19936;-79
2023/02/09 14:25:26;;;;;;;;;;;;;;;;;;5022053;28;19910;-80
2023/02/09 14:27:52;;;;;;;;;;;;;;;;;;5018090;28;19909;-80
2023/02/09 14:30:19;;;;;;;;;;;;;;;;;;5014969;28;19909;-80
2023/02/09 14:32:47;;;;;;;;;;;;;;;;;;5016683;28;19910;-79
2023/02/09 14:35:13;;;;;;;;;;;;;;;;;;5015952;28;19952;-80
2023/02/09 14:37:38;;;;;;;;;;;;;;;;;;5014546;28;20491;-79
2023/02/09 14:40:05;;;;;;;;;;;;;;;;;;5015704;28;19914;-80
2023/02/09 14:42:30;;;;;;;;;;;;;;;;;;5014349;28;20374;-80
2023/02/09 14:44:56;;;;;;;;;;;;;;;;;;5015962;28;19993;-80
2023/02/09 14:47:22;;;;;;;;;;;;;;;;;;5033900;28;19913;-80
2023/02/09 14:49:48;;;;;;;;;;;;;;;;;;5037283;28;19909;-80
2023/02/09 14:52:14;;;;;;;;;;;;;;;;;;5028612;28;20389;-77
2023/02/09 14:54:40;;;;;;;;;;;;;;;;;;5014395;28;19917;-80
2023/02/09 14:57:06;;;;;;;;;;;;;;;;;;5015138;28;19914;-80
2023/02/09 14:59:33;;;;;;;;;;;;;;;;;;5025022;28;19976;-80
2023/02/09 15:01:59;;;;;;;;;;;;;;;;;;5017951;28;19910;-83
2023/02/09 15:04:25;;;;;;;;;;;;;;;;;;5015632;28;19985;-78
2023/02/09 15:06:51;;;;;;;;;;;;;;;;;;5014813;28;19914;-78
2023/02/09 15:09:17;;;;;;;;;;;;;;;;;;5013511;28;19916;-78
2023/02/09 15:14:27;;;;;;;;;;;;;;;;;;5018064;28;19931;-79
2023/02/09 15:16:53;;;;;;;;;;;;;;;;;;5014505;28;20544;-80
2023/02/09 15:19:19;;;;;;;;;;;;;;;;;;5012870;28;20366;-78
2023/02/09 15:21:45;;;;;;;;;;;;;;;;;;5017896;28;19988;-81
2023/02/09 15:24:11;;;;;;;;;;;;;;;;;;5014015;28;19913;-79
2023/02/09 15:26:37;;;;;;;;;;;;;;;;;;5013300;28;19909;-79
2023/02/09 15:29:04;;;;;;;;;;;;;;;;;;5012820;28;19909;-78
2023/02/09 15:31:30;;;;;;;;;;;;;;;;;;5018572;28;19909;-80
2023/02/09 15:33:56;;;;;;;;;;;;;;;;;;5023210;28;19916;-77
2023/02/09 15:36:22;;;;;;;;;;;;;;;;;;5014221;28;20267;-80
2023/02/09 15:38:47;;;;;;;;;;;;;;;;;;5022133;28;19936;-80
2023/02/09 15:49:29;;;;;;;;;;;;;;;;;;5022359;28;20047;-75
2023/02/09 15:51:55;;;;;;;;;;;;;;;;;;4996246;28;20386;-75
2023/02/09 15:54:21;;;;;;;;;;;;;;;;;;4992884;28;19921;-78
2023/02/09 15:56:47;;;;;;;;;;;;;;;;;;4994641;28;19909;-78
2023/02/09 15:59:13;;;;;;;;;;;;;;;;;;5013801;28;20359;-82
2023/02/09 16:01:40;;;;;;;;;;;;;;;;;;5019698;28;19910;-81
2023/02/09 16:04:06;;;;;;;;;;;;;;;;;;5018165;28;19973;-81
2023/02/09 16:06:34;;;;;;;;;;;;;;;;;;5023147;28;20290;-79
2023/02/09 16:09:00;;;;;;;;;;;;;;;;;;5019881;28;19992;-81
2023/02/09 16:11:26;;;;;;;;;;;;;;;;;;5020861;28;19945;-81
2023/02/09 16:13:52;;;;;;;;;;;;;;;;;;5024648;28;19909;-80
2023/02/09 16:16:18;;;;;;;;;;;;;;;;;;5018071;28;20539;-80
2023/02/09 16:18:43;;;;;;;;;;;;;;;;;;5014431;28;19917;-78
2023/02/09 16:21:09;;;;;;;;;;;;;;;;;;5015597;28;20373;-78
2023/02/09 16:23:36;;;;;;;;;;;;;;;;;;5015417;28;19909;-78
2023/02/09 16:26:04;;;;;;;;;;;;;;;;;;5032770;28;19909;-78
2023/02/09 16:28:31;;;;;;;;;;;;;;;;;;5035079;28;19959;-80
2023/02/09 16:30:57;;;;;;;;;;;;;;;;;;5022027;28;19910;-81
2023/02/09 16:33:22;;;;;;;;;;;;;;;;;;5022424;28;19914;-82
2023/02/09 16:35:48;;;;;;;;;;;;;;;;;;5017459;28;19909;-81
2023/02/09 16:38:14;;;;;;;;;;;;;;;;;;5020465;28;19917;-82
2023/02/09 16:40:40;;;;;;;;;;;;;;;;;;5022424;28;19913;-82
2023/02/09 16:43:06;;;;;;;;;;;;;;;;;;5037291;28;19909;-81
2023/02/09 16:45:32;;;;;;;;;;;;;;;;;;5019135;28;19910;-82
2023/02/09 16:47:58;;;;;;;;;;;;;;;;;;5019122;28;19969;-77
2023/02/09 16:50:24;;;;;;;;;;;;;;;;;;5017507;28;20281;-79
2023/02/09 16:52:50;;;;;;;;;;;;;;;;;;5015304;28;19909;-79
2023/02/09 16:55:16;;;;;;;;;;;;;;;;;;5015165;28;19963;-78
2023/02/09 16:57:42;;;;;;;;;;;;;;;;;;5014567;28;19917;-79
2023/02/09 17:00:14;;;;;;;;;;;;;;;;;;5031829;28;19964;-81
2023/02/09 17:02:40;;;;;;;;;;;;;;;;;;5041642;28;19904;-81
2023/02/09 17:05:06;;;;;;;;;;;;;;;;;;5035453;28;20347;-81
2023/02/09 17:07:32;;;;;;;;;;;;;;;;;;5015746;28;19909;-81
2023/02/09 17:09:58;;;;;;;;;;;;;;;;;;5033702;28;19932;-80
2023/02/09 17:12:28;;;;;;;;;;;;;;;;;;5040610;28;19909;-81
2023/02/09 17:14:54;;;;;;;;;;;;;;;;;;5033610;28;19909;-81
2023/02/09 17:17:23;;;;;;;;;;;;;;;;;;5015604;28;19909;-80
2023/02/09 17:19:49;;;;;;;;;;;;;;;;;;5017496;28;19917;-80
2023/02/09 17:22:24;;;;;;;;;;;;;;;;;;5036118;28;19944;-82
2023/02/09 17:24:53;;;;;;;;;;;;;;;;;;5055111;28;19920;-79
2023/02/09 17:27:19;;;;;;;;;;;;;;;;;;5050236;28;19910;-78
2023/02/09 17:29:45;;;;;;;;;;;;;;;;;;5034805;28;19915;-76
2023/02/09 17:32:11;;;;;;;;;;;;;;;;;;5032469;28;19920;-78
2023/02/09 17:34:37;;;;;;;;;;;;;;;;;;5014703;28;19909;-79
2023/02/09 17:37:02;;;;;;;;;;;;;;;;;;5014394;28;19913;-76
2023/02/09 17:39:28;;;;;;;;;;;;;;;;;;5013781;28;19921;-76
2023/02/09 17:41:54;;;;;;;;;;;;;;;;;;5014232;28;19975;-76
2023/02/09 17:44:20;;;;;;;;;;;;;;;;;;5014188;28;20370;-77
2023/02/09 17:46:46;;;;;;;;;;;;;;;;;;5014369;28;19916;-79
2023/02/09 17:49:12;;;;;;;;;;;;;;;;;;5013146;28;19910;-78
2023/02/09 17:51:38;;;;;;;;;;;;;;;;;;5014919;28;20381;-80
2023/02/09 17:54:04;;;;;;;;;;;;;;;;;;5016172;28;19913;-80
2023/02/09 17:56:30;;;;;;;;;;;;;;;;;;5021255;28;19897;-80
2023/02/09 17:58:56;;;;;;;;;;;;;;;;;;5027748;28;19925;-80
2023/02/09 18:01:22;;;;;;;;;;;;;;;;;;5026213;28;19910;-81
2023/02/09 18:03:48;;;;;;;;;;;;;;;;;;5028351;28;19916;-81
2023/02/09 18:06:14;;;;;;;;;;;;;;;;;;5025339;28;19909;-80
2023/02/09 18:08:40;;;;;;;;;;;;;;;;;;5026490;28;19909;-81
2023/02/09 18:11:06;;;;;;;;;;;;;;;;;;5027778;28;19909;-81
2023/02/09 18:13:31;;;;;;;;;;;;;;;;;;5026549;28;19913;-81
2023/02/09 18:15:57;;;;;;;;;;;;;;;;;;5031163;28;20233;-81
2023/02/09 18:18:23;;;;;;;;;;;;;;;;;;5029899;28;20362;-82
2023/02/09 18:20:49;;;;;;;;;;;;;;;;;;5052444;28;19932;-81
2023/02/09 18:23:15;;;;;;;;;;;;;;;;;;5035289;28;19909;-81
2023/02/09 18:25:41;;;;;;;;;;;;;;;;;;5031609;28;19980;-81
2023/02/09 18:33:19;;;;;;;;;;;;;;;;;;5726958;22;19948;-81
2023/02/09 18:35:46;;;;;;;;;;;;;;;;;;5076342;28;19916;-80
2023/02/09 18:38:12;;;;;;;;;;;;;;;;;;5093009;28;19972;-81
2023/02/09 18:40:38;;;;;;;;;;;;;;;;;;5101935;28;19912;-81
2023/02/09 18:43:05;;;;;;;;;;;;;;;;;;5118669;28;19912;-81
2023/02/09 18:45:31;;;;;;;;;;;;;;;;;;5099556;28;19966;-82
2023/02/09 18:47:57;;;;;;;;;;;;;;;;;;5100973;28;19912;-81
2023/02/09 18:50:23;;;;;;;;;;;;;;;;;;5111046;28;19971;-81
2023/02/09 18:52:49;;;;;;;;;;;;;;;;;;5111795;28;19912;-81
2023/02/09 18:55:15;;;;;;;;;;;;;;;;;;5095685;28;19908;-81
2023/02/09 18:57:42;;;;;;;;;;;;;;;;;;5111752;28;19972;-81
2023/02/09 19:00:08;;;;;;;;;;;;;;;;;;5094046;28;19912;-81
2023/02/09 19:02:34;;;;;;;;;;;;;;;;;;5098302;28;19908;-80
2023/02/09 19:05:04;;;;;;;;;;;;;;;;;;5112053;28;19915;-81
2023/02/09 19:07:30;;;;;;;;;;;;;;;;;;5096652;28;19912;-82
2023/02/09 19:09:57;;;;;;;;;;;;;;;;;;5116724;28;19928;-80
2023/02/09 19:12:23;;;;;;;;;;;;;;;;;;5101716;28;19908;-81
2023/02/09 19:14:49;;;;;;;;;;;;;;;;;;5100376;28;19912;-81
2023/02/09 19:17:15;;;;;;;;;;;;;;;;;;5117249;28;19957;-81
2023/02/09 19:19:42;;;;;;;;;;;;;;;;;;5117939;28;19896;-82
2023/02/09 19:22:08;;;;;;;;;;;;;;;;;;5120687;28;19897;-82
2023/02/09 19:24:34;;;;;;;;;;;;;;;;;;5097842;28;19896;-81
2023/02/09 19:27:00;;;;;;;;;;;;;;;;;;5098079;28;19901;-81
2023/02/09 19:29:27;;;;;;;;;;;;;;;;;;5120301;28;19897;-82
2023/02/09 19:34:29;;;;;;;;;;;;;;;;;;5468781;22;19928;-77
2023/02/09 19:36:55;;;;;;;;;;;;;;;;;;5037482;28;19901;-81
2023/02/09 19:39:21;;;;;;;;;;;;;;;;;;5036468;28;19984;-80
2023/02/09 19:44:24;;;;;;;;;;;;;;;;;;5344277;23;19939;-82
2023/02/09 19:46:50;;;;;;;;;;;;;;;;;;5040753;28;19952;-82
2023/02/09 19:49:16;;;;;;;;;;;;;;;;;;5040971;28;19917;-83
2023/02/09 19:51:43;;;;;;;;;;;;;;;;;;5058512;28;19996;-82
2023/02/09 19:54:09;;;;;;;;;;;;;;;;;;5058095;28;19901;-81
2023/02/09 19:56:36;;;;;;;;;;;;;;;;;;5040336;28;19909;-82
2023/02/09 19:59:02;;;;;;;;;;;;;;;;;;5039228;23;19925;-78
2023/02/09 20:01:30;;;;;;;;;;;;;;;;;;5044160;28;19941;-77
2023/02/09 20:03:56;;;;;;;;;;;;;;;;;;5025759;28;19910;-77
2023/02/09 20:06:21;;;;;;;;;;;;;;;;;;5044573;28;19932;-78
2023/02/09 20:08:47;;;;;;;;;;;;;;;;;;5026311;28;20323;-77
2023/02/09 20:11:13;;;;;;;;;;;;;;;;;;5044672;28;19976;-77
2023/02/09 20:13:39;;;;;;;;;;;;;;;;;;5023994;28;19977;-78
2023/02/09 20:16:05;;;;;;;;;;;;;;;;;;5043796;28;19915;-78
2023/02/09 20:18:31;;;;;;;;;;;;;;;;;;5025441;28;20366;-79
2023/02/09 20:20:57;;;;;;;;;;;;;;;;;;5026023;28;19909;-78
2023/02/09 20:23:23;;;;;;;;;;;;;;;;;;5023363;28;20397;-78
2023/02/09 20:25:49;;;;;;;;;;;;;;;;;;5023806;28;19939;-77
2023/02/09 20:28:15;;;;;;;;;;;;;;;;;;5023122;28;19910;-78
2023/02/09 20:30:41;;;;;;;;;;;;;;;;;;5020792;28;19942;-79
2023/02/09 20:33:09;;;;;;;;;;;;;;;;;;5038034;28;20000;-78
2023/02/09 20:35:34;;;;;;;;;;;;;;;;;;5018740;28;19932;-77
2023/02/09 20:38:00;;;;;;;;;;;;;;;;;;5036565;28;20274;-77
2023/02/09 20:40:26;;;;;;;;;;;;;;;;;;5037189;28;19909;-77
2023/02/09 20:48:21;;;;;;;;;;;;;;;;;;5035827;28;20389;-77
2023/02/09 20:50:47;;;;;;;;;;;;;;;;;;5035899;28;19909;-77
2023/02/09 20:53:13;;;;;;;;;;;;;;;;;;5017776;28;19959;-78
2023/02/09 20:55:39;;;;;;;;;;;;;;;;;;5017448;28;20366;-78
2023/02/09 20:58:05;;;;;;;;;;;;;;;;;;5034971;28;19917;-77
2023/02/09 21:00:31;;;;;;;;;;;;;;;;;;5018776;28;20004;-77
2023/02/09 21:02:57;;;;;;;;;;;;;;;;;;5018799;28;20479;-78
2023/02/09 21:05:23;;;;;;;;;;;;;;;;;;5042547;28;19909;-77
2023/02/09 21:07:50;;;;;;;;;;;;;;;;;;5030757;28;19913;-78
2023/02/09 21:10:16;;;;;;;;;;;;;;;;;;5025987;28;19909;-78
2023/02/09 21:12:42;;;;;;;;;;;;;;;;;;5043153;28;19963;-78
2023/02/09 21:15:08;;;;;;;;;;;;;;;;;;5044654;28;19979;-78
2023/02/09 21:17:34;;;;;;;;;;;;;;;;;;5044062;28;20366;-78
2023/02/09 21:20:00;;;;;;;;;;;;;;;;;;5044825;28;20039;-79
2023/02/09 21:22:26;;;;;;;;;;;;;;;;;;5044339;28;19916;-79
2023/02/09 21:24:52;;;;;;;;;;;;;;;;;;5043861;28;19913;-77
2023/02/09 21:27:19;;;;;;;;;;;;;;;;;;5044215;28;19915;-77
2023/02/09 21:29:45;;;;;;;;;;;;;;;;;;5027134;28;19917;-78
2023/02/09 21:32:11;;;;;;;;;;;;;;;;;;5027976;28;19997;-79
2023/02/09 21:34:36;;;;;;;;;;;;;;;;;;5030694;28;19972;-77
2023/02/09 21:37:06;;;;;;;;;;;;;;;;;;5049113;28;19985;-77
2023/02/09 21:39:32;;;;;;;;;;;;;;;;;;5030995;28;19940;-77
2023/02/09 21:44:43;;;;;;;;;;;;;;;;;;5048780;28;19916;-77
2023/02/09 21:47:09;;;;;;;;;;;;;;;;;;5048534;28;19909;-77
2023/02/09 21:49:35;;;;;;;;;;;;;;;;;;5031219;28;19968;-77
2023/02/09 21:52:01;;;;;;;;;;;;;;;;;;5048640;28;19916;-78
2023/02/09 21:54:31;;;;;;;;;;;;;;;;;;5048136;28;19923;-77
2023/02/09 21:56:57;;;;;;;;;;;;;;;;;;5030966;28;19956;-79
2023/02/09 21:59:23;;;;;;;;;;;;;;;;;;5047418;28;19924;-78
2023/02/09 22:01:49;;;;;;;;;;;;;;;;;;5047760;28;19910;-78
2023/02/09 22:04:15;;;;;;;;;;;;;;;;;;5030779;28;19909;-77